createdAt,value
2023-03-14T00:00:06.259Z,64.21
2023-03-14T00:02:32.865Z,64.09
2023-03-14T00:04:59.209Z,63.58
2023-03-14T00:07:25.568Z,63.36
2023-03-14T00:09:52.016Z,63.61
2023-03-14T00:12:19.808Z,64.27
2023-03-14T00:14:46.170Z,65.25
2023-03-14T00:17:12.696Z,63.29
2023-03-14T00:19:39.268Z,64.59
2023-03-14T00:22:05.598Z,64.66
2023-03-14T00:24:31.957Z,64.50
2023-03-14T00:26:58.279Z,64.47
2023-03-14T00:29:26.297Z,65.02
2023-03-14T00:31:52.658Z,66.99
2023-03-14T00:34:19.037Z,65.93
2023-03-14T00:36:45.832Z,65.17
2023-03-14T00:39:12.259Z,65.67
2023-03-14T00:41:38.625Z,64.73
2023-03-14T00:44:05.262Z,65.50
2023-03-14T00:46:32.989Z,65.43
2023-03-14T00:48:59.326Z,65.82
2023-03-14T00:51:25.670Z,64.79
2023-03-14T00:53:52.074Z,65.10
2023-03-14T00:56:18.450Z,65.34
2023-03-14T00:58:44.781Z,66.09
2023-03-14T01:01:13.753Z,65.18
2023-03-14T01:03:41.490Z,65.59
2023-03-14T01:06:10.034Z,66.25
2023-03-14T01:08:36.542Z,66.31
2023-03-14T01:11:06.759Z,66.23
2023-03-14T01:13:33.114Z,66.72
2023-03-14T01:16:03.096Z,67.43
2023-03-14T01:18:29.500Z,67.27
2023-03-14T01:20:57.808Z,67.37
2023-03-14T01:23:24.264Z,67.37
2023-03-14T01:25:50.667Z,66.59
2023-03-14T01:28:17.065Z,67.59
2023-03-14T01:30:43.474Z,66.49
2023-03-14T01:33:09.942Z,65.32
2023-03-14T01:35:36.342Z,68.36
2023-03-14T01:38:04.127Z,68.31
2023-03-14T01:40:30.531Z,68.08
2023-03-14T01:42:58.215Z,67.27
2023-03-14T01:46:02.255Z,68.71
2023-03-14T01:48:33.624Z,68.91
2023-03-14T01:51:01.696Z,69.39
2023-03-14T01:53:30.394Z,67.73
2023-03-14T01:55:57.911Z,67.42
2023-03-14T01:58:26.716Z,65.83
2023-03-14T02:00:53.149Z,67.44
2023-03-14T02:03:23.358Z,65.81
2023-03-14T02:05:50.975Z,66.35
2023-03-14T02:08:19.978Z,66.64
2023-03-14T02:10:49.673Z,65.80
2023-03-14T02:13:17.941Z,65.81
2023-03-14T02:15:44.629Z,66.21
2023-03-14T02:18:12.254Z,67.75
2023-03-14T02:20:46.089Z,66.47
2023-03-14T02:23:16.444Z,65.94
2023-03-14T02:25:49.057Z,66.01
2023-03-14T02:28:17.261Z,66.46
2023-03-14T02:30:44.267Z,67.56
2023-03-14T02:33:13.832Z,66.12
2023-03-14T02:35:47.403Z,66.49
2023-03-14T02:38:20.377Z,66.42
2023-03-14T02:40:47.263Z,66.68
2023-03-14T02:43:13.704Z,65.81
2023-03-14T02:45:44.440Z,66.10
2023-03-14T02:48:16.554Z,66.03
2023-03-14T02:50:44.288Z,67.03
2023-03-14T02:53:13.709Z,65.34
2023-03-14T02:55:40.157Z,66.25
2023-03-14T02:58:06.596Z,66.30
2023-03-14T03:00:33.008Z,66.39
2023-03-14T03:03:01.012Z,66.46
2023-03-14T03:05:27.429Z,66.85
2023-03-14T03:07:53.778Z,67.28
2023-03-14T03:10:20.178Z,65.71
2023-03-14T03:12:46.557Z,65.24
2023-03-14T03:15:13.819Z,67.07
2023-03-14T03:17:40.226Z,67.10
2023-03-14T03:20:10.382Z,65.22
2023-03-14T03:22:37.304Z,65.35
2023-03-14T03:25:04.287Z,65.10
2023-03-14T03:27:31.158Z,64.81
2023-03-14T03:29:57.563Z,64.95
2023-03-14T03:32:24.029Z,65.10
2023-03-14T03:34:50.666Z,63.65
2023-03-14T03:37:18.441Z,62.52
2023-03-14T03:39:44.961Z,63.12
2023-03-14T03:42:11.379Z,63.62
2023-03-14T03:44:37.866Z,63.07
2023-03-14T03:47:04.415Z,66.13
2023-03-14T03:49:31.408Z,64.45
2023-03-14T03:51:57.816Z,69.18
2023-03-14T03:54:26.865Z,72.48
2023-03-14T03:56:53.318Z,74.96
2023-03-14T03:59:19.698Z,74.40
2023-03-14T04:01:46.061Z,76.55
2023-03-14T04:04:12.887Z,78.91
2023-03-14T04:06:39.655Z,79.51
2023-03-14T04:09:06.043Z,80.96
2023-03-14T04:11:33.820Z,78.14
2023-03-14T04:14:00.198Z,80.92
2023-03-14T04:16:27.551Z,76.86
2023-03-14T04:18:54.071Z,80.96
2023-03-14T04:21:20.469Z,78.22
2023-03-14T04:23:46.843Z,77.04
2023-03-14T04:26:13.284Z,76.83
2023-03-14T04:28:40.976Z,78.64
2023-03-14T04:31:08.406Z,78.45
2023-03-14T04:33:34.922Z,77.97
2023-03-14T04:36:01.312Z,77.34
2023-03-14T04:38:27.722Z,77.14
2023-03-14T04:40:54.106Z,77.15
2023-03-14T04:43:20.493Z,77.92
2023-03-14T04:45:48.182Z,78.46
2023-03-14T04:48:14.659Z,77.04
2023-03-14T04:50:41.135Z,75.42
2023-03-14T04:53:07.545Z,74.70
2023-03-14T04:55:34.061Z,75.86
2023-03-14T04:58:00.462Z,75.22
2023-03-14T05:00:27.037Z,75.49
2023-03-14T05:02:54.805Z,76.09
2023-03-14T05:05:21.689Z,76.00
2023-03-14T05:07:48.061Z,73.93
2023-03-14T05:10:14.752Z,75.20
2023-03-14T05:12:41.140Z,74.86
2023-03-14T05:15:09.354Z,75.63
2023-03-14T05:17:35.909Z,75.78
2023-03-14T05:20:04.343Z,75.09
2023-03-14T05:22:30.801Z,73.95
2023-03-14T05:24:57.187Z,75.68
2023-03-14T05:27:23.678Z,75.65
2023-03-14T05:29:50.035Z,73.97
2023-03-14T05:32:16.681Z,77.25
2023-03-14T05:34:43.028Z,78.22
2023-03-14T05:37:10.723Z,77.15
2023-03-14T05:39:37.089Z,76.20
2023-03-14T05:42:03.485Z,76.07
2023-03-14T05:44:29.825Z,76.28
2023-03-14T05:46:56.189Z,77.47
2023-03-14T05:49:22.879Z,76.61
2023-03-14T05:51:49.251Z,77.05
2023-03-14T05:54:16.969Z,78.10
2023-03-14T05:56:43.364Z,77.75
2023-03-14T05:59:09.849Z,79.24
2023-03-14T06:01:36.592Z,79.30
2023-03-14T06:04:02.964Z,77.84
2023-03-14T06:06:29.363Z,77.67
2023-03-14T06:08:55.768Z,78.70
2023-03-14T06:11:23.453Z,77.70
2023-03-14T06:13:49.852Z,78.17
2023-03-14T06:16:16.297Z,78.60
2023-03-14T06:18:42.780Z,77.56
2023-03-14T06:21:09.192Z,78.45
2023-03-14T06:23:35.699Z,77.44
2023-03-14T06:26:02.054Z,76.64
2023-03-14T06:28:29.750Z,75.13
2023-03-14T06:30:56.210Z,75.28
2023-03-14T06:33:22.617Z,74.25
2023-03-14T06:35:49.032Z,73.63
2023-03-14T06:38:15.429Z,74.21
2023-03-14T06:40:41.787Z,75.08
2023-03-14T06:43:08.150Z,73.80
2023-03-14T06:45:35.858Z,72.78
2023-03-14T06:48:02.646Z,71.98
2023-03-14T06:50:29.093Z,72.35
2023-03-14T06:52:55.512Z,73.54
2023-03-14T06:55:22.715Z,73.15
2023-03-14T06:57:49.313Z,73.46
2023-03-14T07:00:17.752Z,69.92
2023-03-14T07:02:45.487Z,70.47
2023-03-14T07:05:12.059Z,70.81
2023-03-14T07:07:38.502Z,69.01
2023-03-14T07:10:05.781Z,69.33
2023-03-14T07:12:32.132Z,69.05
2023-03-14T07:15:05.717Z,69.96
2023-03-14T07:17:38.510Z,70.21
2023-03-14T07:20:08.652Z,69.40
2023-03-14T07:22:35.086Z,67.80
2023-03-14T07:25:01.497Z,69.11
2023-03-14T07:27:27.903Z,68.41
2023-03-14T07:29:54.281Z,69.90
2023-03-14T07:32:20.710Z,70.38
2023-03-14T07:34:47.141Z,68.84
2023-03-14T07:37:14.856Z,69.56
2023-03-14T07:39:41.212Z,67.27
2023-03-14T07:42:07.764Z,68.00
2023-03-14T07:44:34.342Z,68.16
2023-03-14T07:47:00.724Z,67.61
2023-03-14T07:49:27.114Z,68.64
2023-03-14T07:51:53.484Z,67.57
2023-03-14T07:54:21.284Z,70.77
2023-03-14T07:56:47.772Z,70.10
2023-03-14T07:59:14.240Z,69.93
2023-03-14T08:01:40.665Z,73.19
2023-03-14T08:04:07.152Z,72.21
2023-03-14T08:06:33.502Z,71.95
2023-03-14T08:08:59.850Z,69.42
2023-03-14T08:11:27.596Z,71.39
2023-03-14T08:13:53.982Z,72.49
2023-03-14T08:16:20.712Z,71.35
2023-03-14T08:18:47.343Z,70.39
2023-03-14T08:21:13.753Z,72.62
2023-03-14T08:23:40.372Z,71.34
2023-03-14T08:26:07.416Z,70.92
2023-03-14T08:28:35.204Z,72.75
2023-03-14T08:31:02.687Z,68.56
2023-03-14T08:33:30.402Z,66.62
2023-03-14T08:35:58.674Z,66.16
2023-03-14T08:38:25.350Z,63.84
2023-03-14T08:40:56.757Z,64.71
2023-03-14T08:43:23.113Z,63.53
2023-03-14T08:45:50.930Z,65.42
2023-03-14T08:48:17.477Z,69.75
2023-03-14T08:50:43.878Z,68.80
2023-03-14T08:53:10.276Z,71.20
2023-03-14T08:55:36.922Z,69.23
2023-03-14T08:58:03.293Z,71.41
2023-03-14T09:00:29.646Z,69.49
2023-03-14T09:02:57.392Z,68.18
2023-03-14T09:05:23.785Z,66.75
2023-03-14T09:07:50.224Z,69.38
2023-03-14T09:10:17.128Z,71.07
2023-03-14T09:12:43.557Z,72.82
2023-03-14T09:15:11.125Z,70.17
2023-03-14T09:17:37.532Z,70.08
2023-03-14T09:20:06.164Z,71.73
2023-03-14T09:22:32.528Z,72.92
2023-03-14T09:24:58.904Z,72.38
2023-03-14T09:27:25.271Z,73.69
2023-03-14T09:29:51.637Z,75.51
2023-03-14T09:32:18.024Z,72.72
2023-03-14T09:34:44.431Z,71.46
2023-03-14T09:37:12.178Z,71.28
2023-03-14T09:39:38.607Z,69.05
2023-03-14T09:42:09.006Z,69.15
2023-03-14T09:44:38.825Z,71.47
2023-03-14T09:47:07.554Z,74.19
2023-03-14T09:49:36.806Z,70.52
2023-03-14T09:52:11.429Z,70.94
2023-03-14T09:54:43.736Z,69.62
2023-03-14T09:57:14.528Z,66.54
2023-03-14T09:59:44.567Z,69.71
2023-03-14T10:02:17.784Z,67.36
2023-03-14T10:04:45.788Z,68.14
2023-03-14T10:07:15.198Z,70.03
2023-03-14T10:09:44.521Z,68.11
2023-03-14T10:12:11.197Z,65.43
2023-03-14T10:14:45.195Z,64.77
2023-03-14T10:17:13.202Z,66.67
2023-03-14T10:19:52.214Z,68.33
2023-03-14T10:22:20.450Z,66.93
2023-03-14T10:24:53.690Z,65.22
2023-03-14T10:27:21.788Z,65.71
2023-03-14T10:29:54.749Z,64.99
2023-03-14T10:32:23.489Z,67.77
2023-03-14T10:35:07.673Z,67.11
2023-03-14T10:37:34.426Z,67.97
2023-03-14T10:40:04.025Z,69.18
2023-03-14T10:42:31.837Z,68.92
2023-03-14T10:45:01.341Z,69.44
2023-03-14T10:47:29.241Z,67.97
2023-03-14T10:49:56.588Z,66.92
2023-03-14T10:52:35.810Z,66.49
2023-03-14T10:55:13.660Z,67.36
2023-03-14T10:57:40.517Z,68.81
2023-03-14T11:00:15.153Z,66.72
2023-03-14T11:02:54.955Z,66.11
2023-03-14T11:05:29.908Z,66.97
2023-03-14T11:08:02.140Z,66.96
2023-03-14T11:10:33.501Z,69.04
2023-03-14T11:13:12.415Z,68.30
2023-03-14T11:15:43.988Z,66.73
2023-03-14T11:18:30.722Z,70.30
2023-03-14T11:21:02.811Z,70.59
2023-03-14T11:23:38.870Z,75.11
2023-03-14T11:26:24.269Z,77.81
2023-03-14T11:28:56.605Z,75.70
2023-03-14T11:31:27.975Z,71.45
2023-03-14T11:33:59.672Z,75.08
2023-03-14T11:36:31.300Z,72.29
2023-03-14T11:38:59.571Z,74.37
2023-03-14T11:41:33.364Z,74.68
2023-03-14T11:44:01.138Z,72.61
2023-03-14T11:46:31.698Z,72.16
2023-03-14T11:49:05.184Z,70.82
2023-03-14T11:51:36.391Z,72.83
2023-03-14T11:54:12.560Z,72.39
2023-03-14T11:56:48.917Z,71.33
2023-03-14T11:59:20.773Z,71.74
2023-03-14T12:01:54.445Z,73.55
2023-03-14T12:04:32.842Z,72.33
2023-03-14T12:07:04.173Z,70.33
2023-03-14T12:09:31.306Z,71.04
2023-03-14T12:12:02.438Z,70.50
2023-03-14T12:14:31.546Z,72.08
2023-03-14T12:17:03.738Z,71.56
2023-03-14T12:19:33.948Z,70.32
2023-03-14T12:22:08.379Z,69.31
2023-03-14T12:24:38.348Z,67.56
2023-03-14T12:27:07.576Z,68.71
2023-03-14T12:29:54.135Z,73.79
2023-03-14T12:32:25.359Z,75.05
2023-03-14T12:34:52.021Z,70.86
2023-03-14T12:37:27.425Z,70.89
2023-03-14T12:40:11.937Z,73.80
2023-03-14T12:42:46.599Z,71.49
2023-03-14T12:45:24.356Z,72.78
2023-03-14T12:48:04.205Z,73.00
2023-03-14T12:50:36.378Z,72.65
2023-03-14T12:53:22.214Z,72.38
2023-03-14T12:55:54.952Z,71.30
2023-03-14T12:58:30.538Z,69.86
2023-03-14T13:01:00.691Z,70.28
2023-03-14T13:03:40.228Z,69.46
2023-03-14T13:06:06.807Z,67.97
2023-03-14T13:08:38.901Z,68.50
2023-03-14T13:11:10.484Z,68.71
2023-03-14T13:13:43.861Z,66.90
2023-03-14T13:16:16.661Z,68.38
2023-03-14T13:18:44.446Z,64.56
2023-03-14T13:21:15.444Z,67.47
2023-03-14T13:23:54.927Z,67.01
2023-03-14T13:26:21.286Z,67.06
2023-03-14T13:28:49.679Z,65.54
2023-03-14T13:31:23.081Z,66.45
2023-03-14T13:34:01.344Z,63.87
2023-03-14T13:36:28.049Z,65.58
2023-03-14T13:38:58.575Z,63.30
2023-03-14T13:41:25.764Z,67.12
2023-03-14T13:44:01.718Z,69.63
2023-03-14T13:46:28.888Z,65.47
2023-03-14T13:48:58.694Z,64.45
2023-03-14T13:51:26.369Z,63.28
2023-03-14T13:53:54.859Z,62.26
2023-03-14T13:56:22.915Z,62.47
2023-03-14T13:58:50.176Z,64.16
2023-03-14T14:01:19.975Z,64.52
2023-03-14T14:03:51.540Z,65.97
2023-03-14T14:06:29.664Z,70.60
2023-03-14T14:08:56.761Z,67.30
2023-03-14T14:11:44.749Z,66.60
2023-03-14T14:14:16.963Z,63.81
2023-03-14T14:16:47.521Z,66.61
2023-03-14T14:19:16.138Z,61.96
2023-03-14T14:21:43.071Z,63.83
2023-03-14T14:24:13.318Z,64.21
2023-03-14T14:26:41.361Z,61.26
2023-03-14T14:29:18.208Z,61.32
2023-03-14T14:31:46.080Z,59.94
2023-03-14T14:34:20.312Z,59.79
2023-03-14T14:36:46.789Z,60.27
2023-03-14T14:39:21.483Z,58.58
2023-03-14T14:41:49.536Z,57.12
2023-03-14T14:44:19.414Z,56.63
2023-03-14T14:46:49.358Z,54.81
2023-03-14T14:49:20.223Z,54.42
2023-03-14T14:51:50.558Z,53.07
2023-03-14T14:54:19.307Z,52.09
2023-03-14T14:56:52.021Z,52.45
2023-03-14T14:59:22.393Z,51.54
2023-03-14T15:01:50.154Z,51.73
2023-03-14T15:04:16.629Z,50.91
2023-03-14T15:06:44.843Z,52.10
2023-03-14T15:09:12.372Z,52.27
2023-03-14T15:11:39.000Z,50.59
2023-03-14T15:14:05.382Z,50.55
2023-03-14T15:16:32.589Z,51.68
2023-03-14T15:19:14.532Z,51.48
2023-03-14T15:21:49.626Z,49.87
2023-03-14T15:24:16.880Z,50.89
2023-03-14T15:26:43.333Z,49.31
2023-03-14T15:29:10.256Z,50.39
2023-03-14T15:31:36.775Z,50.72
2023-03-14T15:34:04.578Z,49.53
2023-03-14T15:36:32.605Z,49.71
2023-03-14T15:38:59.940Z,49.01
2023-03-14T15:41:27.772Z,48.25
2023-03-14T15:43:54.732Z,48.99
2023-03-14T15:46:21.663Z,49.88
2023-03-14T15:48:49.267Z,49.69
2023-03-14T15:51:17.675Z,48.81
2023-03-14T15:53:44.537Z,48.01
2023-03-14T15:56:14.275Z,48.85
2023-03-14T15:58:41.419Z,49.32
2023-03-14T16:01:08.922Z,50.51
2023-03-14T16:03:35.494Z,50.63
2023-03-14T16:06:02.049Z,49.46
2023-03-14T16:08:29.869Z,48.14
2023-03-14T16:10:58.814Z,47.83
2023-03-14T16:13:25.260Z,48.23
2023-03-14T16:15:56.360Z,48.12
2023-03-14T16:18:22.808Z,47.92
2023-03-14T16:20:53.579Z,47.71
2023-03-14T16:23:19.956Z,47.71
2023-03-14T16:25:47.679Z,47.82
2023-03-14T16:28:14.597Z,48.50
2023-03-14T16:30:41.697Z,48.88
2023-03-14T16:33:12.055Z,46.70
2023-03-14T16:35:39.037Z,46.70
2023-03-14T16:38:05.485Z,46.70
2023-03-14T16:40:31.909Z,46.54
2023-03-14T16:45:46.120Z,47.11
2023-03-14T16:48:13.063Z,47.99
2023-03-14T16:50:40.044Z,48.27
2023-03-14T16:53:09.625Z,48.89
2023-03-14T16:55:40.836Z,48.74
2023-03-14T16:58:08.963Z,49.74
2023-03-14T17:00:35.394Z,49.70
2023-03-14T17:03:01.933Z,49.96
2023-03-14T17:05:28.484Z,49.09
2023-03-14T17:07:54.882Z,48.57
2023-03-14T17:10:21.263Z,49.65
2023-03-14T17:12:47.625Z,47.85
2023-03-14T17:15:15.520Z,48.13
2023-03-14T17:17:41.895Z,48.24
2023-03-14T17:20:09.849Z,48.03
2023-03-14T17:22:36.253Z,46.65
2023-03-14T17:25:02.696Z,47.79
2023-03-14T17:27:29.701Z,46.94
2023-03-14T17:29:56.141Z,47.86
2023-03-14T17:32:24.191Z,47.43
2023-03-14T17:34:50.659Z,47.96
2023-03-14T17:37:17.049Z,48.41
2023-03-14T17:39:43.487Z,48.01
2023-03-14T17:42:10.217Z,47.67
2023-03-14T17:44:36.582Z,49.49
2023-03-14T17:47:02.976Z,49.09
2023-03-14T17:49:30.695Z,47.23
2023-03-14T17:51:57.125Z,47.65
2023-03-14T17:54:23.584Z,47.85
2023-03-14T17:56:49.987Z,47.74
2023-03-14T17:59:16.465Z,47.24
2023-03-14T18:01:43.004Z,47.01
2023-03-14T18:04:09.698Z,47.61
2023-03-14T18:06:37.439Z,47.74
2023-03-14T18:09:03.840Z,48.35
2023-03-14T18:11:30.274Z,48.09
2023-03-14T18:13:56.660Z,48.09
2023-03-14T18:16:23.358Z,47.63
2023-03-14T18:18:50.170Z,47.99
2023-03-14T18:21:16.686Z,48.57
2023-03-14T18:23:44.788Z,47.99
2023-03-14T18:26:11.340Z,46.57
2023-03-14T18:28:37.712Z,47.62
2023-03-14T18:31:07.772Z,46.83
2023-03-14T18:33:34.221Z,46.48
2023-03-14T18:36:00.784Z,47.11
2023-03-14T18:38:27.221Z,47.46
2023-03-14T18:40:54.921Z,48.65
2023-03-14T18:43:21.358Z,49.47
2023-03-14T18:45:48.278Z,48.92
2023-03-14T18:48:14.676Z,48.41
2023-03-14T18:50:41.375Z,47.98
2023-03-14T18:53:07.738Z,48.44
2023-03-14T18:55:34.135Z,48.06
2023-03-14T18:58:01.885Z,48.19
2023-03-14T19:00:28.421Z,47.74
2023-03-14T19:02:54.865Z,47.67
2023-03-14T19:05:21.394Z,48.96
2023-03-14T19:07:47.772Z,48.36
2023-03-14T19:10:14.198Z,49.00
2023-03-14T19:12:40.556Z,49.40
2023-03-14T19:15:10.176Z,49.27
2023-03-14T19:17:36.792Z,49.66
2023-03-14T19:20:03.863Z,50.19
2023-03-14T19:22:30.242Z,50.38
2023-03-14T19:24:56.642Z,49.83
2023-03-14T19:27:23.110Z,51.21
2023-03-14T19:29:49.487Z,50.59
2023-03-14T19:32:18.713Z,51.33
2023-03-14T19:34:45.082Z,50.88
2023-03-14T19:37:11.468Z,50.86
2023-03-14T19:39:38.276Z,52.06
2023-03-14T19:42:04.796Z,52.44
2023-03-14T19:44:31.190Z,51.89
2023-03-14T19:46:57.698Z,52.57
2023-03-14T19:49:26.679Z,52.50
2023-03-14T19:51:53.046Z,52.73
2023-03-14T19:54:19.478Z,53.29
2023-03-14T19:56:45.821Z,52.77
2023-03-14T19:59:12.180Z,53.78
2023-03-14T20:01:38.667Z,52.44
2023-03-14T20:04:05.199Z,53.09
2023-03-14T20:06:33.623Z,53.26
2023-03-14T20:09:00.409Z,52.22
2023-03-14T20:11:26.792Z,52.76
2023-03-14T20:13:53.164Z,53.88
2023-03-14T20:16:19.625Z,52.78
2023-03-14T20:18:46.046Z,53.28
2023-03-14T20:21:12.992Z,53.63
2023-03-14T20:23:41.829Z,54.17
2023-03-14T20:26:08.173Z,54.28
2023-03-14T20:28:34.596Z,54.90
2023-03-14T20:31:01.177Z,53.87
2023-03-14T20:33:27.691Z,55.44
2023-03-14T20:35:54.829Z,54.71
2023-03-14T20:38:21.460Z,54.53
2023-03-14T20:40:49.143Z,56.09
2023-03-14T20:43:15.611Z,55.74
2023-03-14T20:45:42.024Z,56.53
2023-03-14T20:48:08.457Z,55.36
2023-03-14T20:50:34.883Z,55.14
2023-03-14T20:53:01.299Z,56.13
2023-03-14T20:55:27.730Z,55.09
2023-03-14T20:57:55.436Z,55.28
2023-03-14T21:00:22.274Z,57.17
2023-03-14T21:02:48.674Z,55.82
2023-03-14T21:05:15.278Z,55.69
2023-03-14T21:07:41.850Z,55.49
2023-03-14T21:10:10.129Z,55.66
2023-03-14T21:12:36.619Z,55.54
2023-03-14T21:15:05.760Z,55.82
2023-03-14T21:17:32.163Z,55.32
2023-03-14T21:19:58.626Z,56.10
2023-03-14T21:22:25.679Z,55.40
2023-03-14T21:24:52.381Z,55.59
2023-03-14T21:27:18.967Z,55.66
2023-03-14T21:29:45.392Z,56.17
2023-03-14T21:32:13.409Z,56.19
2023-03-14T21:34:39.845Z,55.98
2023-03-14T21:37:06.240Z,56.43
2023-03-14T21:39:32.677Z,58.60
2023-03-14T21:41:59.043Z,58.23
2023-03-14T21:44:25.454Z,57.39
2023-03-14T21:46:51.849Z,57.23
2023-03-14T21:49:19.605Z,57.93
2023-03-14T21:51:46.103Z,57.68
2023-03-14T21:54:12.820Z,59.39
2023-03-14T21:56:39.160Z,58.01
2023-03-14T21:59:05.851Z,57.88
2023-03-14T22:01:32.518Z,59.45
2023-03-14T22:03:59.234Z,59.62
2023-03-14T22:06:27.453Z,58.00
2023-03-14T22:08:54.385Z,58.67
2023-03-14T22:11:20.910Z,57.69
2023-03-14T22:13:47.423Z,58.01
2023-03-14T22:16:13.810Z,58.56
2023-03-14T22:18:40.208Z,58.70
2023-03-14T22:21:06.773Z,58.93
2023-03-14T22:23:34.481Z,59.45
2023-03-14T22:26:00.901Z,59.46
2023-03-14T22:28:27.305Z,59.07
2023-03-14T22:30:53.666Z,58.81
2023-03-14T22:33:20.303Z,60.72
2023-03-14T22:35:50.242Z,59.20
2023-03-14T22:38:16.949Z,59.65
2023-03-14T22:40:44.808Z,59.75
2023-03-14T22:43:11.248Z,58.82
2023-03-14T22:45:37.648Z,59.61
2023-03-14T22:48:04.621Z,59.65
2023-03-14T22:50:31.017Z,60.94
2023-03-14T22:52:57.387Z,59.95
2023-03-14T22:55:23.762Z,61.28
2023-03-14T22:57:52.719Z,60.08
2023-03-14T23:00:20.676Z,58.99
2023-03-14T23:02:47.071Z,59.32
2023-03-14T23:05:13.805Z,60.59
2023-03-14T23:07:40.240Z,61.96
2023-03-14T23:10:07.289Z,61.04
2023-03-14T23:12:33.703Z,61.74
2023-03-14T23:15:01.402Z,61.38
2023-03-14T23:17:27.784Z,60.96
2023-03-14T23:19:54.400Z,63.50
2023-03-14T23:22:21.335Z,60.25
2023-03-14T23:24:47.700Z,60.44
2023-03-14T23:27:14.663Z,60.44
2023-03-14T23:29:41.030Z,59.73
2023-03-14T23:32:08.915Z,61.09
2023-03-14T23:34:35.301Z,61.79
2023-03-14T23:37:01.650Z,60.88
2023-03-14T23:39:27.998Z,62.59
2023-03-14T23:41:54.407Z,61.63
2023-03-14T23:44:20.916Z,60.94
2023-03-14T23:46:47.281Z,60.96
2023-03-14T23:49:14.974Z,61.70
2023-03-14T23:51:41.382Z,62.22
2023-03-14T23:54:07.723Z,61.10
2023-03-14T23:56:34.272Z,61.46
2023-03-14T23:59:00.685Z,62.03
